Airfield :
LOGIN :

Register | Disclaimer

   EN    FR    IT 

 










Legend :    VFR   Marginal VFR   IFR   Intensive IFR   Very Intensive IFR
Visi :
Ceiling :
>= 8 km
>= 3000ft
5 to 8 km
1000 to 3000 ft
1500m to 5 km
500 to 1000 ft
800 to 1500m
200 to 500 ft
< 800m
< 200 ft
Symbols :   Thunderstorms  Fog  Heavy snow  Heavy precipitations  Wind > 20 kt
SIGMETs :     Misc.  Thunderstorms  Icing  Turbulence  Mountain Waves  Volcanic Ashes






- Airport Elevation : 1090 ft
- IATA code : CFE


LFLC - Clermont-Ferrand Auvergne

CURRENT METAR :
  • 100430Z AUTO 13004KT CAVOK M00/M02 Q1029 NOSIG

EXPIRED METARs :
  • 100400Z AUTO VRB02KT 9999 FEW035 02/M00 Q1029 NOSIG
  • 100330Z AUTO VRB02KT 9999 FEW038 03/00 Q1028 NOSIG
  • 100300Z AUTO VRB01KT 9999 SCT040 03/00 Q1028 NOSIG
  • 100230Z AUTO 31003KT 280V360 CAVOK 03/00 Q1028 NOSIG
  • 100200Z AUTO 32005KT 280V340 CAVOK 04/01 Q1028 NOSIG

TAF TAF LFLC
Valid from the 10 at 03:00 until the 11 at 03:00 UTC


100200Z 1003/1103 34005KT 9999 BKN040
BECMG 1003/1005 VRB03KT
BECMG 1005/1007 16005KT
PROB30
TEMPO 1007/1010 BKN015
BECMG 1010/1012 CAVOK
BECMG 1018/1020 18010KT
TEMPO 1021/1103 18015G25KT
ATIS : +33 4 73 62 74 38



MET'MAP, your aeronautical weather chart ! - Copyright ORBIFLY December 2007 - Disclaimer

ORBIFLY MET'MAP TEAM :

Programming & Development : Alexandra Zaïnal
Concept & original design : Baudouin d'Aumeries
Assistance for programming : Marc-Olivier Méhu
Technical & hardware support : Manuel Goepfert

Contact : metmap@orbifly.com




SOURCES & CREDITS :

   NOAA